Time;durP1;ratioP1;P1;durP2;ratioP2;P2;SDS_P1;SDS_P2;PMS_P1;PMS_P2;Temp;Humidity;BMP_temperature;BMP_pressure;BME280_temperature;BME280_humidity;BME280_pressure;Samples;Min_cycle;Max_cycle;Signal;HPM_P1;HPM_P2
2022/11/10 00:01:40;;;;;;;0.50;0.50;;;;;;;11.61;100.00;95754.41;4377939;32;20188;-64
2022/11/10 00:04:05;;;;;;;0.90;0.90;;;;;;;11.69;100.00;95757.19;4333967;32;20204;-64
2022/11/10 00:06:30;;;;;;;0.87;0.70;;;;;;;11.55;100.00;95755.56;4365956;32;20188;-64
2022/11/10 00:08:57;;;;;;;1.07;0.67;;;;;;;11.54;100.00;95756.63;4339333;32;20189;-64
2022/11/10 00:11:22;;;;;;;1.20;1.20;;;;;;;11.57;100.00;95756.84;4358120;32;20185;-64
2022/11/10 00:19:17;;;;;;;0.73;0.73;;;;;;;11.58;100.00;95758.44;4365494;32;20204;-64
2022/11/10 00:21:42;;;;;;;0.30;0.30;;;;;;;11.59;100.00;95764.53;4385121;32;20189;-64
2022/11/10 00:24:10;;;;;;;0.63;0.63;;;;;;;11.64;100.00;95767.09;4339476;32;20185;-65
2022/11/10 00:26:37;;;;;;;0.83;0.83;;;;;;;11.62;100.00;95767.41;4370756;32;20188;-65
2022/11/10 00:29:02;;;;;;;0.40;0.40;;;;;;;11.75;100.00;95778.37;4367934;32;20261;-65
2022/11/10 00:31:30;;;;;;;0.50;0.50;;;;;;;11.76;100.00;95774.66;4370011;32;20239;-65
2022/11/10 00:33:58;;;;;;;0.70;0.70;;;;;;;11.71;100.00;95771.00;4365637;32;20181;-65
2022/11/10 00:36:23;;;;;;;0.93;0.93;;;;;;;11.77;100.00;95778.91;4380791;32;20177;-65
2022/11/10 00:38:50;;;;;;;0.67;0.67;;;;;;;11.85;100.00;95786.22;4363461;32;20199;-64
2022/11/10 00:41:15;;;;;;;0.47;0.43;;;;;;;11.74;100.00;95782.12;4359441;32;20227;-64
2022/11/10 00:43:42;;;;;;;0.20;0.20;;;;;;;11.64;100.00;95791.03;4370272;32;20236;-64
2022/11/10 00:46:10;;;;;;;0.40;0.40;;;;;;;11.70;100.00;95790.66;4354061;32;20188;-64
2022/11/10 00:48:36;;;;;;;0.20;0.20;;;;;;;11.85;100.00;95791.53;4376756;32;20207;-64
2022/11/10 00:51:02;;;;;;;0.67;0.67;;;;;;;11.74;100.00;95792.75;4355359;32;20264;-64
2022/11/10 00:53:29;;;;;;;0.57;0.57;;;;;;;11.74;100.00;95806.03;4352199;32;20205;-64
2022/11/10 00:55:58;;;;;;;0.63;0.63;;;;;;;11.76;100.00;95803.88;4373900;32;20239;-64
2022/11/10 00:58:24;;;;;;;0.83;0.83;;;;;;;11.76;100.00;95807.38;4349498;32;20220;-64
2022/11/10 01:00:50;;;;;;;4.03;0.80;;;;;;;11.91;100.00;95812.44;4362045;32;20204;-64
2022/11/10 01:03:17;;;;;;;0.27;0.27;;;;;;;11.80;100.00;95807.59;4352701;32;20181;-65
2022/11/10 01:05:43;;;;;;;1.87;0.87;;;;;;;11.70;100.00;95817.25;4358735;32;20184;-64
2022/11/10 01:08:09;;;;;;;0.60;0.60;;;;;;;11.75;100.00;95815.59;4381434;32;20177;-65
2022/11/10 01:10:36;;;;;;;0.50;0.50;;;;;;;11.66;100.00;95816.22;4360081;32;20237;-64
2022/11/10 01:13:02;;;;;;;0.47;0.47;;;;;;;11.61;100.00;95818.97;4329041;32;20190;-64
2022/11/10 01:15:27;;;;;;;0.27;0.27;;;;;;;11.66;100.00;95820.75;4350622;32;20188;-64
2022/11/10 01:17:54;;;;;;;0.20;0.20;;;;;;;11.65;100.00;95824.50;4344810;32;20189;-64
2022/11/10 01:20:20;;;;;;;0.53;0.40;;;;;;;11.76;100.00;95825.16;4336714;32;20199;-63
2022/11/10 01:22:45;;;;;;;0.33;0.33;;;;;;;11.66;100.00;95824.19;4355549;32;20199;-65
2022/11/10 01:25:14;;;;;;;1.17;0.43;;;;;;;11.66;100.00;95821.53;4377675;32;20188;-64
2022/11/10 01:27:40;;;;;;;1.50;0.50;;;;;;;11.71;100.00;95823.34;4347379;32;20206;-65
2022/11/10 01:30:07;;;;;;;0.40;0.40;;;;;;;11.75;100.00;95828.88;4385411;32;20194;-65
2022/11/10 01:32:32;;;;;;;0.60;0.60;;;;;;;11.73;100.00;95829.16;4370333;32;20281;-65
2022/11/10 01:34:59;;;;;;;0.40;0.40;;;;;;;11.73;100.00;95825.72;4363987;32;20250;-65
2022/11/10 01:37:24;;;;;;;0.00;0.00;;;;;;;11.54;100.00;95829.16;4391436;32;20220;-65
2022/11/10 01:39:49;;;;;;;0.47;0.47;;;;;;;11.80;100.00;95826.97;4364036;32;20225;-65
2022/11/10 01:42:26;;;;;;;0.60;0.20;;;;;;;11.74;100.00;95828.09;4376720;32;20257;-65
2022/11/10 01:45:22;;;;;;;0.23;0.20;;;;;;;11.89;100.00;95835.88;4362844;32;20192;-65
2022/11/10 01:47:54;;;;;;;1.70;0.50;;;;;;;11.81;100.00;95838.41;4364269;32;20188;-65
2022/11/10 01:50:24;;;;;;;0.10;0.10;;;;;;;11.84;100.00;95837.84;4359345;32;20189;-65
2022/11/10 01:52:55;;;;;;;0.17;0.17;;;;;;;11.90;100.00;95837.44;4357764;32;20189;-65
2022/11/10 01:55:22;;;;;;;0.10;0.10;;;;;;;11.89;100.00;95837.75;4363232;32;20188;-65
2022/11/10 01:57:47;;;;;;;0.10;0.10;;;;;;;11.83;100.00;95842.38;4340563;32;20199;-65
2022/11/10 02:00:13;;;;;;;0.07;0.07;;;;;;;11.68;100.00;95843.31;4363483;32;20193;-65
2022/11/10 02:02:45;;;;;;;0.20;0.20;;;;;;;11.77;100.00;95848.03;4368362;32;20195;-65
2022/11/10 02:05:12;;;;;;;0.20;0.20;;;;;;;11.66;100.00;95842.81;4345586;32;20215;-65
2022/11/10 02:07:38;;;;;;;0.10;0.10;;;;;;;11.68;100.00;95845.19;4350838;32;20238;-65
2022/11/10 02:10:04;;;;;;;0.00;0.00;;;;;;;11.76;100.00;95844.59;4345529;32;20200;-65
2022/11/10 02:12:39;;;;;;;0.20;0.10;;;;;;;11.86;100.00;95848.94;4367801;32;20253;-64
2022/11/10 02:15:09;;;;;;;0.10;0.10;;;;;;;11.78;100.00;95844.28;4384981;32;20203;-64
2022/11/10 02:17:37;;;;;;;0.10;0.10;;;;;;;11.81;100.00;95851.69;4375499;32;20177;-64
2022/11/10 02:20:15;;;;;;;0.40;0.40;;;;;;;11.87;100.00;95848.66;4357269;32;20260;-65
2022/11/10 02:22:40;;;;;;;0.00;0.00;;;;;;;11.88;100.00;95849.44;4357248;32;20223;-65
2022/11/10 02:25:07;;;;;;;0.20;0.20;;;;;;;11.80;100.00;95848.25;4373631;32;20197;-65
2022/11/10 02:27:34;;;;;;;0.10;0.10;;;;;;;11.80;100.00;95845.59;4352941;32;20276;-65
2022/11/10 02:30:03;;;;;;;0.10;0.10;;;;;;;11.78;100.00;95838.97;4366566;32;20267;-65
2022/11/10 02:32:28;;;;;;;0.17;0.17;;;;;;;11.67;100.00;95849.72;4374842;32;20185;-65
2022/11/10 02:34:56;;;;;;;0.10;0.10;;;;;;;11.56;100.00;95853.59;4378351;32;20234;-65
2022/11/10 02:37:21;;;;;;;0.17;0.17;;;;;;;11.51;100.00;95856.31;4359186;32;20192;-65
2022/11/10 02:39:48;;;;;;;0.00;0.00;;;;;;;11.56;100.00;95852.78;4355611;32;20222;-65
2022/11/10 02:42:13;;;;;;;0.00;0.00;;;;;;;11.63;100.00;95859.34;4368398;32;20201;-65
2022/11/10 02:44:40;;;;;;;0.20;0.20;;;;;;;11.59;100.00;95857.53;4372025;32;20253;-65
2022/11/10 02:47:06;;;;;;;0.10;0.10;;;;;;;11.69;100.00;95854.75;4346442;32;20203;-65
2022/11/10 02:49:34;;;;;;;0.10;0.10;;;;;;;11.69;100.00;95855.53;4370570;32;20185;-65
2022/11/10 02:51:59;;;;;;;0.17;0.17;;;;;;;11.66;100.00;95865.94;4376172;32;20177;-65
2022/11/10 02:54:26;;;;;;;0.00;0.00;;;;;;;11.57;100.00;95863.16;4377872;32;20188;-65
2022/11/10 02:56:51;;;;;;;0.23;0.10;;;;;;;11.56;100.00;95868.75;4359982;32;20192;-65
2022/11/10 02:59:18;;;;;;;0.00;0.00;;;;;;;11.57;100.00;95871.13;4378934;32;20200;-65
2022/11/10 03:01:43;;;;;;;0.00;0.00;;;;;;;11.65;100.00;95877.63;4373721;32;20248;-64
2022/11/10 03:04:08;;;;;;;0.00;0.00;;;;;;;11.50;100.00;95891.13;4373858;32;20191;-65
2022/11/10 03:06:35;;;;;;;0.10;0.10;;;;;;;11.39;100.00;95897.66;4382592;32;20230;-65
2022/11/10 03:09:01;;;;;;;0.30;0.30;;;;;;;11.24;100.00;95919.84;4385581;32;20186;-65
2022/11/10 03:11:27;;;;;;;0.30;0.23;;;;;;;11.33;100.00;95928.78;4380830;32;20192;-64
2022/11/10 03:13:53;;;;;;;0.10;0.10;;;;;;;11.29;100.00;95928.56;4367368;32;20197;-64
2022/11/10 03:16:19;;;;;;;0.20;0.20;;;;;;;11.23;100.00;95934.19;4374695;32;20215;-65
2022/11/10 03:18:46;;;;;;;0.40;0.40;;;;;;;11.15;100.00;95945.44;4363778;32;20220;-64
2022/11/10 03:21:14;;;;;;;0.57;0.50;;;;;;;11.15;100.00;95954.22;4372431;32;20244;-65
2022/11/10 03:23:41;;;;;;;0.27;0.27;;;;;;;11.03;100.00;95959.88;4380238;32;20269;-65
2022/11/10 03:26:07;;;;;;;5.73;0.93;;;;;;;10.86;100.00;95961.37;4363763;32;20234;-65
2022/11/10 03:28:33;;;;;;;0.00;0.00;;;;;;;10.91;100.00;95961.34;4366823;32;20409;-64
2022/11/10 03:31:06;;;;;;;0.23;0.23;;;;;;;10.87;100.00;95966.41;4367722;32;20176;-65
2022/11/10 03:33:32;;;;;;;0.20;0.20;;;;;;;10.81;100.00;95975.47;4366073;32;20177;-65
2022/11/10 03:35:57;;;;;;;0.40;0.40;;;;;;;10.84;100.00;95980.22;4350146;32;20185;-65
2022/11/10 03:38:23;;;;;;;0.20;0.10;;;;;;;10.89;100.00;95988.16;4363970;32;20219;-65
2022/11/10 03:40:52;;;;;;;0.20;0.20;;;;;;;10.84;100.00;95982.88;4371144;32;20184;-65
2022/11/10 03:43:17;;;;;;;0.43;0.23;;;;;;;10.72;100.00;95993.06;4352336;32;20195;-65
2022/11/10 03:45:43;;;;;;;0.43;0.43;;;;;;;10.78;100.00;95996.50;4366031;32;20197;-65
2022/11/10 03:48:10;;;;;;;0.03;0.03;;;;;;;10.87;100.00;95994.81;4373812;32;20252;-65
2022/11/10 03:50:35;;;;;;;0.20;0.20;;;;;;;10.87;100.00;95998.25;4373332;32;20195;-65
2022/11/10 03:53:01;;;;;;;0.20;0.20;;;;;;;10.86;100.00;95998.53;4360676;32;20223;-65
2022/11/10 03:55:26;;;;;;;0.43;0.43;;;;;;;10.93;100.00;96010.44;4369462;32;20244;-65
2022/11/10 03:57:51;;;;;;;0.10;0.10;;;;;;;10.98;100.00;96002.44;4383835;32;20196;-65
2022/11/10 04:00:18;;;;;;;0.20;0.20;;;;;;;10.92;100.00;96003.53;4336270;32;20193;-65
2022/11/10 04:02:46;;;;;;;0.33;0.33;;;;;;;10.90;100.00;96004.88;4364183;32;20274;-65
2022/11/10 04:11:01;;;;;;;0.40;0.40;;;;;;;11.09;100.00;96013.72;4322746;32;20228;-65
2022/11/10 04:16:12;;;;;;;0.20;0.20;;;;;;;11.04;100.00;96016.44;4365787;32;20203;-66
2022/11/10 04:18:38;;;;;;;0.50;0.50;;;;;;;11.01;100.00;96022.31;4362802;32;20253;-66
2022/11/10 04:21:09;;;;;;;0.30;0.30;;;;;;;10.87;100.00;96030.09;4356404;32;20276;-65
2022/11/10 04:23:34;;;;;;;0.50;0.50;;;;;;;10.82;100.00;96021.38;4373636;32;20253;-65
2022/11/10 04:26:28;;;;;;;0.37;0.23;;;;;;;10.82;100.00;96027.47;4380880;32;20193;-65
2022/11/10 04:28:58;;;;;;;0.23;0.23;;;;;;;10.94;100.00;96017.31;4379423;32;20205;-65
2022/11/10 04:31:25;;;;;;;0.20;0.20;;;;;;;10.94;100.00;96022.63;4376890;32;20244;-65
2022/11/10 04:33:53;;;;;;;0.33;0.30;;;;;;;10.99;100.00;96019.94;4374415;32;20188;-65
2022/11/10 04:36:21;;;;;;;0.43;0.43;;;;;;;10.99;100.00;96030.56;4371966;32;20201;-66
2022/11/10 04:38:48;;;;;;;1.70;0.67;;;;;;;11.07;100.00;96031.81;4357156;32;20207;-65
2022/11/10 04:41:17;;;;;;;0.30;0.30;;;;;;;11.17;100.00;96030.94;4375060;32;20300;-65
2022/11/10 04:43:43;;;;;;;2.07;0.50;;;;;;;11.22;100.00;96038.88;4367665;32;20207;-65
2022/11/10 04:46:33;;;;;;;0.87;0.67;;;;;;;11.19;100.00;96050.03;4388794;32;20197;-65
2022/11/10 04:49:00;;;;;;;0.53;0.53;;;;;;;11.25;100.00;96049.72;4365361;32;20184;-65
2022/11/10 04:51:35;;;;;;;0.40;0.40;;;;;;;11.27;100.00;96060.84;4357718;32;20196;-65
2022/11/10 04:54:04;;;;;;;0.40;0.40;;;;;;;11.29;100.00;96076.50;4339930;32;20188;-65
2022/11/10 04:56:31;;;;;;;1.50;0.50;;;;;;;11.15;100.00;96072.91;4353001;32;20200;-65
2022/11/10 04:58:56;;;;;;;7.20;0.67;;;;;;;11.28;100.00;96077.56;4352353;32;20211;-65
2022/11/10 05:01:25;;;;;;;0.40;0.40;;;;;;;11.22;100.00;96078.72;4364143;32;20253;-65
2022/11/10 05:03:53;;;;;;;0.70;0.63;;;;;;;11.05;100.00;96076.44;4369107;32;20248;-65
2022/11/10 05:06:18;;;;;;;0.47;0.47;;;;;;;11.10;100.00;96079.03;4333337;32;20235;-65
2022/11/10 05:08:45;;;;;;;0.90;0.57;;;;;;;11.06;100.00;96079.88;4368445;32;20185;-65
2022/11/10 05:11:11;;;;;;;3.70;0.63;;;;;;;11.03;100.00;96076.69;4368645;32;20184;-65
2022/11/10 05:13:37;;;;;;;0.60;0.60;;;;;;;11.03;100.00;96074.03;4379417;32;20274;-65
2022/11/10 05:16:05;;;;;;;0.40;0.40;;;;;;;10.97;100.00;96082.34;4359382;32;20325;-65
2022/11/10 05:18:31;;;;;;;0.90;0.90;;;;;;;11.01;100.00;96073.53;4377660;32;20223;-65
2022/11/10 05:20:56;;;;;;;4.43;0.90;;;;;;;11.01;100.00;96083.37;4377457;32;20177;-65
2022/11/10 05:23:40;;;;;;;0.40;0.33;;;;;;;10.94;100.00;96091.66;4355659;32;20191;-65
2022/11/10 05:26:07;;;;;;;0.43;0.43;;;;;;;10.81;100.00;96091.44;4358943;32;20189;-66
2022/11/10 05:28:35;;;;;;;1.03;0.40;;;;;;;10.92;100.00;96093.78;4372075;32;20333;-66
2022/11/10 05:31:00;;;;;;;0.30;0.30;;;;;;;11.06;100.00;96098.47;4360015;32;20238;-66
2022/11/10 05:33:25;;;;;;;0.30;0.30;;;;;;;11.03;100.00;96103.25;4367937;32;20233;-66
2022/11/10 05:35:52;;;;;;;0.87;0.87;;;;;;;10.96;100.00;96110.75;4384723;32;20186;-65
2022/11/10 05:38:18;;;;;;;0.10;0.10;;;;;;;10.98;100.00;96113.13;4365161;32;20197;-65
2022/11/10 05:40:44;;;;;;;0.43;0.43;;;;;;;10.95;100.00;96113.69;4364636;32;20223;-65
2022/11/10 05:43:10;;;;;;;0.10;0.10;;;;;;;10.92;100.00;96119.53;4380685;32;20198;-66
2022/11/10 05:45:37;;;;;;;0.83;0.50;;;;;;;10.96;100.00;96120.56;4367807;32;20184;-66
2022/11/10 05:48:03;;;;;;;0.10;0.10;;;;;;;10.88;100.00;96131.75;4382138;32;20199;-66
2022/11/10 05:50:30;;;;;;;0.60;0.60;;;;;;;11.00;100.00;96137.53;4365247;32;20288;-66
2022/11/10 05:52:55;;;;;;;0.00;0.00;;;;;;;10.90;100.00;96140.25;4354862;32;20242;-65
2022/11/10 05:55:24;;;;;;;0.20;0.20;;;;;;;10.90;100.00;96142.91;4321377;32;20205;-65
2022/11/10 05:57:53;;;;;;;0.47;0.47;;;;;;;10.91;100.00;96147.16;4353040;32;20225;-65
2022/11/10 06:00:31;;;;;;;0.57;0.57;;;;;;;10.85;100.00;96156.19;4369662;32;20218;-65
2022/11/10 06:03:03;;;;;;;0.77;0.77;;;;;;;10.96;100.00;96163.84;4369969;32;20211;-64
2022/11/10 06:05:31;;;;;;;0.30;0.30;;;;;;;10.87;100.00;96164.69;4370909;32;20185;-65
2022/11/10 06:07:59;;;;;;;0.77;0.40;;;;;;;10.89;100.00;96173.97;4375430;32;20193;-65
2022/11/10 06:10:24;;;;;;;0.50;0.50;;;;;;;10.85;100.00;96178.22;4340676;32;20220;-65
2022/11/10 06:12:50;;;;;;;0.63;0.63;;;;;;;10.99;100.00;96184.53;4358174;32;20201;-65
2022/11/10 06:15:16;;;;;;;0.40;0.40;;;;;;;10.96;100.00;96182.44;4356131;32;20259;-65
2022/11/10 06:17:43;;;;;;;3.40;0.87;;;;;;;10.76;100.00;96190.50;4351176;32;20208;-65
2022/11/10 06:20:09;;;;;;;0.47;0.47;;;;;;;10.85;100.00;96188.06;4366966;32;20181;-65
2022/11/10 06:22:36;;;;;;;0.77;0.77;;;;;;;10.83;100.00;96192.84;4366952;32;20313;-65
2022/11/10 06:25:03;;;;;;;0.30;0.30;;;;;;;10.77;100.00;96201.91;4334618;32;20207;-65
2022/11/10 06:27:30;;;;;;;0.40;0.40;;;;;;;10.74;100.00;96203.25;4367222;32;20184;-65
2022/11/10 06:29:55;;;;;;;0.40;0.40;;;;;;;10.81;100.00;96219.66;4357594;32;20278;-66
2022/11/10 06:32:22;;;;;;;0.20;0.20;;;;;;;10.90;100.00;96238.47;4373892;32;20184;-65
2022/11/10 06:34:48;;;;;;;0.57;0.57;;;;;;;10.91;100.00;96240.84;4342856;32;20190;-65
2022/11/10 06:37:15;;;;;;;0.63;0.63;;;;;;;10.86;100.00;96242.72;4373066;32;20180;-64
2022/11/10 06:39:41;;;;;;;0.50;0.50;;;;;;;10.92;100.00;96247.75;4366187;32;20269;-65
2022/11/10 06:42:06;;;;;;;0.20;0.20;;;;;;;10.94;100.00;96256.25;4344772;32;20192;-65
2022/11/10 06:44:31;;;;;;;0.50;0.50;;;;;;;10.90;100.00;96260.50;4361092;32;20177;-65
2022/11/10 06:46:58;;;;;;;1.50;0.97;;;;;;;10.97;100.00;96261.00;4347365;32;20224;-65
2022/11/10 06:49:25;;;;;;;1.90;1.23;;;;;;;10.91;100.00;96261.28;4326710;32;20221;-65
2022/11/10 06:51:52;;;;;;;0.73;0.73;;;;;;;10.85;100.00;96257.06;4357212;32;20204;-65
2022/11/10 06:54:18;;;;;;;0.70;0.70;;;;;;;10.91;100.00;96262.09;4343625;32;20189;-65
2022/11/10 06:56:44;;;;;;;1.40;1.03;;;;;;;10.93;100.00;96265.28;4347590;32;20212;-64
2022/11/10 06:59:11;;;;;;;2.57;0.97;;;;;;;10.91;100.00;96272.72;4336432;32;20259;-65
2022/11/10 07:01:37;;;;;;;0.57;0.57;;;;;;;10.90;100.00;96271.12;4365395;32;20199;-65
2022/11/10 07:04:03;;;;;;;0.50;0.50;;;;;;;10.92;100.00;96274.31;4357118;32;20287;-66
2022/11/10 07:06:30;;;;;;;0.13;0.13;;;;;;;10.95;100.00;96273.75;4346674;32;20216;-65
2022/11/10 07:08:57;;;;;;;2.63;0.70;;;;;;;11.01;100.00;96288.59;4387757;32;20239;-65
2022/11/10 07:11:23;;;;;;;0.43;0.43;;;;;;;11.09;100.00;96294.41;4365637;32;20184;-65
2022/11/10 07:13:50;;;;;;;1.53;0.93;;;;;;;11.13;100.00;96295.47;4373025;32;20192;-65
2022/11/10 07:16:16;;;;;;;1.03;0.80;;;;;;;11.11;100.00;96302.91;4372878;32;20194;-65
2022/11/10 07:18:47;;;;;;;0.50;0.50;;;;;;;11.04;100.00;96308.50;4382992;32;20185;-65
2022/11/10 07:21:13;;;;;;;0.53;0.30;;;;;;;11.03;100.00;96310.34;4384594;32;20215;-65
2022/11/10 07:23:39;;;;;;;0.87;0.53;;;;;;;11.03;100.00;96309.56;4363797;32;20193;-65
2022/11/10 07:26:06;;;;;;;0.43;0.43;;;;;;;11.09;100.00;96313.00;4372580;32;20234;-65
2022/11/10 07:28:31;;;;;;;0.13;0.13;;;;;;;10.96;100.00;96322.34;4371991;32;20181;-65
2022/11/10 07:31:01;;;;;;;0.57;0.57;;;;;;;11.14;100.00;96339.53;4385428;32;20202;-65
2022/11/10 07:33:27;;;;;;;0.20;0.20;;;;;;;11.05;100.00;96331.31;4362090;32;20185;-65
2022/11/10 07:35:58;;;;;;;0.60;0.60;;;;;;;11.06;100.00;96337.44;4372612;32;20189;-65
2022/11/10 07:38:25;;;;;;;0.53;0.53;;;;;;;11.14;100.00;96340.34;4376458;32;20193;-65
2022/11/10 07:40:52;;;;;;;1.00;0.67;;;;;;;11.19;100.00;96348.28;4360866;32;20184;-65
2022/11/10 07:43:21;;;;;;;0.70;0.70;;;;;;;11.21;100.00;96356.00;4369739;32;20204;-65
2022/11/10 07:45:53;;;;;;;0.57;0.57;;;;;;;11.27;100.00;96355.69;4368469;32;20203;-65
2022/11/10 07:48:19;;;;;;;2.87;0.90;;;;;;;11.27;100.00;96354.88;4358368;32;20193;-64
2022/11/10 07:50:45;;;;;;;5.47;0.87;;;;;;;11.23;100.00;96359.16;4379058;32;20222;-64
2022/11/10 07:53:16;;;;;;;0.77;0.77;;;;;;;11.21;100.00;96356.00;4355042;32;20189;-48
2022/11/10 07:55:44;;;;;;;0.23;0.23;;;;;;;11.89;100.00;96357.00;4366654;32;20200;-51
2022/11/10 07:58:12;;;;;;;0.80;0.80;;;;;;;12.93;100.00;96360.13;4366675;32;20211;-52
2022/11/10 08:00:38;;;;;;;0.50;0.50;;;;;;;13.51;100.00;96362.69;4355597;32;20229;-66
2022/11/10 08:03:14;;;;;;;0.50;0.50;;;;;;;13.35;97.64;96371.97;4383712;32;20220;-64
2022/11/10 08:05:41;;;;;;;2.57;1.43;;;;;;;12.84;94.38;96367.16;4351801;32;20196;-65
2022/11/10 08:08:09;;;;;;;0.70;0.70;;;;;;;12.34;94.83;96366.53;4374536;32;20311;-63
2022/11/10 08:10:40;;;;;;;0.50;0.50;;;;;;;12.25;95.77;96365.53;4361678;32;20210;-64
2022/11/10 08:13:08;;;;;;;1.10;0.87;;;;;;;11.97;97.48;96371.59;4400148;32;20212;-63
2022/11/10 08:15:34;;;;;;;1.27;0.93;;;;;;;11.92;98.10;96371.59;4350183;32;20231;-65
2022/11/10 08:18:13;;;;;;;1.20;1.10;;;;;;;11.93;98.16;96375.84;4368230;32;20193;-64
2022/11/10 08:20:39;;;;;;;0.30;0.30;;;;;;;11.97;98.61;96379.56;4376939;32;20215;-68
2022/11/10 08:23:05;;;;;;;0.70;0.70;;;;;;;11.73;98.63;96379.41;4373544;32;20188;-61
2022/11/10 08:25:34;;;;;;;0.83;0.83;;;;;;;11.80;98.50;96384.44;4372816;32;20242;-62
2022/11/10 08:28:11;;;;;;;0.90;0.90;;;;;;;11.83;99.05;96383.91;4388231;32;20207;-60
2022/11/10 08:30:40;;;;;;;1.03;1.03;;;;;;;11.86;98.69;96383.34;4374573;32;20199;-60
2022/11/10 08:33:07;;;;;;;1.67;1.10;;;;;;;11.89;98.53;96385.44;4376896;32;20233;-61
2022/11/10 08:35:35;;;;;;;2.63;1.57;;;;;;;11.85;98.83;96392.38;4378383;32;20193;-62
2022/11/10 08:38:08;;;;;;;0.93;0.90;;;;;;;11.88;98.88;96391.84;4365049;32;20196;-60
2022/11/10 08:40:34;;;;;;;0.57;0.57;;;;;;;11.86;99.18;96399.28;4378084;32;20298;-62
2022/11/10 08:43:00;;;;;;;0.60;0.60;;;;;;;11.98;98.55;96394.44;4377006;32;20200;-61
2022/11/10 08:45:26;;;;;;;0.80;0.80;;;;;;;11.91;98.07;96402.72;4368630;32;20232;-61
2022/11/10 08:47:58;;;;;;;0.63;0.63;;;;;;;12.06;97.20;96404.47;4383219;32;20180;-61
2022/11/10 08:50:27;;;;;;;3.30;0.67;;;;;;;12.14;96.83;96403.91;4378396;32;20192;-61
2022/11/10 08:52:53;;;;;;;0.57;0.50;;;;;;;11.99;96.40;96410.13;4341372;32;20215;-60
2022/11/10 08:55:20;;;;;;;0.33;0.33;;;;;;;12.05;96.69;96419.66;4348731;32;20250;-59
2022/11/10 08:57:47;;;;;;;0.87;0.87;;;;;;;12.09;96.94;96422.56;4375026;32;20288;-59
2022/11/10 09:00:13;;;;;;;0.87;0.87;;;;;;;12.19;96.21;96427.84;4386351;32;20217;-60
2022/11/10 09:02:39;;;;;;;0.37;0.37;;;;;;;12.21;96.21;96432.88;4356285;32;20283;-61
2022/11/10 09:05:06;;;;;;;0.47;0.47;;;;;;;12.24;95.61;96440.31;4352006;32;20264;-60
2022/11/10 09:07:43;;;;;;;0.67;0.67;;;;;;;12.39;94.98;96443.66;4369155;32;20256;-60
2022/11/10 09:10:10;;;;;;;0.30;0.30;;;;;;;12.61;93.83;96447.78;4372985;32;20369;-60
2022/11/10 09:12:36;;;;;;;0.53;0.53;;;;;;;12.68;92.78;96442.91;4376623;32;20188;-61
2022/11/10 09:15:04;;;;;;;2.00;0.57;;;;;;;12.38;93.57;96444.72;4362937;32;20228;-61
2022/11/10 09:17:31;;;;;;;0.63;0.63;;;;;;;12.64;93.35;96452.53;4354613;32;20189;-62
2022/11/10 09:19:58;;;;;;;0.50;0.50;;;;;;;12.62;92.60;96460.00;4365858;32;20295;-61
2022/11/10 09:22:26;;;;;;;0.80;0.50;;;;;;;12.58;92.00;96464.28;4372288;32;20193;-60
2022/11/10 09:24:51;;;;;;;0.40;0.40;;;;;;;12.80;92.62;96462.00;4377134;32;20184;-60
2022/11/10 09:27:18;;;;;;;0.43;0.43;;;;;;;12.98;91.83;96463.97;4369373;32;20200;-62
2022/11/10 09:29:45;;;;;;;0.10;0.10;;;;;;;12.88;90.88;96474.72;4372615;32;20209;-60
2022/11/10 09:32:10;;;;;;;0.40;0.40;;;;;;;12.95;90.43;96482.38;4377746;32;20207;-60
2022/11/10 09:34:37;;;;;;;0.60;0.60;;;;;;;12.95;89.71;96485.84;4338949;32;20184;-59
2022/11/10 09:37:02;;;;;;;0.37;0.37;;;;;;;12.84;89.31;96495.00;4364373;32;20200;-59
2022/11/10 09:39:29;;;;;;;0.40;0.40;;;;;;;12.85;89.11;96490.47;4379166;32;20192;-59
2022/11/10 09:41:54;;;;;;;0.27;0.27;;;;;;;12.80;89.33;96501.16;4354423;32;20193;-60
2022/11/10 09:44:30;;;;;;;0.63;0.63;;;;;;;12.91;88.86;96498.12;4374664;32;20196;-59
2022/11/10 09:47:01;;;;;;;0.30;0.30;;;;;;;12.95;87.77;96501.81;4371924;32;20246;-61
2022/11/10 09:49:52;;;;;;;0.10;0.10;;;;;;;12.79;87.71;96500.34;4378828;32;20307;-60
2022/11/10 09:52:21;;;;;;;0.30;0.30;;;;;;;12.53;88.55;96505.03;4367833;32;20235;-59
2022/11/10 09:55:14;;;;;;;1.13;0.53;;;;;;;12.75;88.22;96501.97;4379985;32;20184;-61
2022/11/10 09:57:42;;;;;;;0.17;0.17;;;;;;;12.86;88.39;96506.16;4375981;32;20184;-60
2022/11/10 10:00:13;;;;;;;1.00;0.97;;;;;;;12.77;88.75;96509.69;4352406;32;20257;-60
2022/11/10 10:03:03;;;;;;;0.57;0.53;;;;;;;12.97;87.72;96494.34;4347122;32;20295;-62
2022/11/10 10:05:47;;;;;;;1.03;0.93;;;;;;;12.73;87.08;96498.78;4366086;32;20233;-62
2022/11/10 10:08:51;;;;;;;2.63;0.40;;;;;;;12.89;86.35;96513.56;4361738;32;20225;-62
2022/11/10 10:11:35;;;;;;;0.20;0.20;;;;;;;12.98;85.45;96509.25;4363398;32;20201;-62
2022/11/10 10:14:44;;;;;;;1.10;0.93;;;;;;;13.09;84.71;96509.97;4367791;32;20231;-62
2022/11/10 10:17:36;;;;;;;0.47;0.47;;;;;;;13.08;84.32;96514.50;4363836;32;20203;-62
2022/11/10 10:20:49;;;;;;;0.30;0.30;;;;;;;13.13;83.77;96534.16;4378638;32;20207;-61
2022/11/10 10:23:20;;;;;;;0.20;0.20;;;;;;;13.35;82.23;96523.88;4361840;32;20220;-62
2022/11/10 10:25:46;;;;;;;0.13;0.13;;;;;;;13.42;81.90;96529.69;4352201;32;20193;-62
2022/11/10 10:28:17;;;;;;;0.40;0.40;;;;;;;13.31;82.35;96530.84;4362485;32;20189;-62
2022/11/10 10:30:43;;;;;;;0.40;0.40;;;;;;;13.29;81.61;96533.81;4362987;32;20188;-62
2022/11/10 10:33:21;;;;;;;0.30;0.30;;;;;;;13.32;80.63;96537.75;4378584;32;20248;-61
2022/11/10 10:35:49;;;;;;;0.30;0.30;;;;;;;13.27;81.65;96540.50;4362167;32;20246;-61
2022/11/10 10:38:32;;;;;;;0.57;0.53;;;;;;;13.34;82.01;96530.28;4368992;32;20204;-61
2022/11/10 10:41:24;;;;;;;0.17;0.17;;;;;;;13.52;81.43;96518.91;4378749;32;20241;-61
2022/11/10 10:43:53;;;;;;;0.20;0.20;;;;;;;13.35;81.05;96515.88;4381260;32;20180;-62
2022/11/10 10:46:23;;;;;;;1.20;0.53;;;;;;;13.58;80.52;96515.13;4341823;32;20295;-61
2022/11/10 10:49:20;;;;;;;0.10;0.10;;;;;;;13.46;77.28;96514.72;4317827;32;20189;-61
2022/11/10 10:51:46;;;;;;;0.67;0.57;;;;;;;13.40;77.15;96534.50;4343115;32;20189;-62
2022/11/10 10:54:35;;;;;;;0.23;0.17;;;;;;;13.29;74.95;96538.34;4376376;32;20282;-62
2022/11/10 10:57:21;;;;;;;0.10;0.10;;;;;;;13.24;76.73;96539.19;4341200;32;20185;-62
2022/11/10 10:59:49;;;;;;;0.37;0.37;;;;;;;13.18;78.17;96537.62;4324346;32;20247;-62
2022/11/10 11:02:26;;;;;;;0.33;0.27;;;;;;;13.15;79.97;96540.00;4342865;32;20244;-62
2022/11/10 11:05:30;;;;;;;0.27;0.27;;;;;;;13.30;81.08;96539.94;4379161;32;20246;-60
2022/11/10 11:08:02;;;;;;;0.10;0.10;;;;;;;13.12;80.33;96543.22;4325741;32;20205;-61
2022/11/10 11:10:33;;;;;;;0.83;0.70;;;;;;;13.19;79.24;96533.09;4294267;32;20245;-63
2022/11/10 11:13:21;;;;;;;0.80;0.77;;;;;;;12.98;78.00;96535.88;4352252;32;20231;-60
2022/11/10 11:16:00;;;;;;;0.30;0.30;;;;;;;13.24;77.72;96536.50;4381767;32;20228;-61
2022/11/10 11:18:29;;;;;;;0.30;0.30;;;;;;;13.27;76.67;96545.81;4342273;32;20202;-61
2022/11/10 11:21:33;;;;;;;1.50;0.63;;;;;;;13.37;78.04;96545.72;4363486;32;20197;-61
2022/11/10 11:24:47;;;;;;;0.63;0.63;;;;;;;13.15;77.39;96556.00;4363744;32;20197;-61
2022/11/10 11:28:09;;;;;;;0.50;0.50;;;;;;;13.36;77.09;96554.78;4360789;32;20260;-61
2022/11/10 11:31:13;;;;;;;0.20;0.20;;;;;;;13.59;77.14;96556.72;4361556;32;20216;-62
2022/11/10 11:34:05;;;;;;;0.30;0.30;;;;;;;13.62;77.46;96563.34;4333553;32;20188;-62
2022/11/10 11:37:01;;;;;;;0.33;0.33;;;;;;;13.49;74.40;96564.03;4348986;32;20192;-61
2022/11/10 11:40:05;;;;;;;0.20;0.20;;;;;;;13.43;75.41;96554.47;4329932;32;20265;-61
2022/11/10 11:43:19;;;;;;;0.70;0.57;;;;;;;13.50;75.63;96558.41;4318637;32;20209;-61
2022/11/10 11:45:59;;;;;;;0.23;0.23;;;;;;;13.58;74.71;96555.13;4340496;32;20201;-61
2022/11/10 11:49:11;;;;;;;0.20;0.20;;;;;;;13.55;76.24;96552.22;4335380;32;20193;-61
2022/11/10 11:51:53;;;;;;;0.27;0.27;;;;;;;13.36;75.10;96549.47;4333638;32;20256;-61
2022/11/10 11:55:00;;;;;;;0.40;0.40;;;;;;;13.44;75.53;96550.75;4333806;32;20193;-61
2022/11/10 11:58:04;;;;;;;0.20;0.20;;;;;;;13.35;75.46;96553.19;4359456;32;20199;-62